Symerton, Illinois
Current Conditions -  °F | °C
As of 12:15 PM on Sunday 25 Jan 2015 (Local Time) from KJOT Reporting Station
Light Snow Light Snow  
Wind Chill: 22°   Ceiling: 1000
Heat Index: 32°   Visibility: 4mi
Dew Point: 31°   Wind: 15mph
Humidity: 95%   Direction: 40°NE
Pressure: 29.77"   Gusts: 21mph
Location:  41.3199°N, 88.0518°W
Report Text: KJOT 251815Z AUTO 04013G18KT 4SM -SN OVC010 00/M01 A2977 RMK AO2 T00011006
Loading
Personal Weather Stations






























Interactive Weather Map New forecast layout! Learn more

10-Day Weather Forecast

Advertisements
Track Severe Weather on mobile